Time;durP1;ratioP1;P1;durP2;ratioP2;P2;SDS_P1;SDS_P2;PMS_P1;PMS_P2;Temp;Humidity;BMP_temperature;BMP_pressure;BME280_temperature;BME280_humidity;BME280_pressure;Samples;Min_cycle;Max_cycle;Signal;HPM_P1;HPM_P2
2023/03/04 00:01:27;;;;;;;35.03;18.55;;;2.70;1.00;;;;;;5077986;28;20223;-83
2023/03/04 00:03:54;;;;;;;37.38;18.02;;;2.60;1.00;;;;;;5077653;28;20203;-83
2023/03/04 00:06:21;;;;;;;34.00;18.02;;;2.60;1.00;;;;;;5073457;28;20232;-83
2023/03/04 00:08:48;;;;;;;37.00;19.48;;;2.50;1.00;;;;;;5069210;28;20203;-83
2023/03/04 00:11:16;;;;;;;35.85;19.63;;;2.50;1.00;;;;;;5067846;28;20294;-83
2023/03/04 00:13:43;;;;;;;34.20;18.98;;;2.50;1.00;;;;;;5067193;28;20261;-82
2023/03/04 00:16:10;;;;;;;31.48;17.83;;;2.50;1.00;;;;;;5075184;28;20235;-83
2023/03/04 00:18:36;;;;;;;37.72;20.50;;;2.50;1.00;;;;;;5076606;28;20322;-82
2023/03/04 00:21:04;;;;;;;41.03;20.10;;;2.50;1.00;;;;;;5076349;28;20188;-82
2023/03/04 00:23:31;;;;;;;34.03;20.70;;;2.60;1.00;;;;;;5076324;28;20204;-81
2023/03/04 00:25:58;;;;;;;35.85;19.60;;;2.60;1.00;;;;;;5076598;28;20223;-82
2023/03/04 00:28:26;;;;;;;31.27;18.27;;;2.60;1.00;;;;;;5074942;28;20208;-82
2023/03/04 00:30:53;;;;;;;32.22;17.58;;;2.80;1.00;;;;;;5075244;28;20215;-82
2023/03/04 00:33:20;;;;;;;32.80;17.58;;;2.70;1.00;;;;;;5073003;28;20254;-82
2023/03/04 00:35:47;;;;;;;27.88;17.58;;;2.70;1.00;;;;;;5065173;28;20291;-82
2023/03/04 00:38:14;;;;;;;37.13;18.15;;;2.80;1.00;;;;;;5065100;28;20211;-83
2023/03/04 00:40:40;;;;;;;36.15;17.95;;;2.80;1.00;;;;;;5065572;28;20620;-82
2023/03/04 00:43:07;;;;;;;34.97;17.90;;;2.80;1.00;;;;;;5066691;28;20616;-82
2023/03/04 00:45:36;;;;;;;30.40;16.65;;;2.80;99.90;;;;;;5065918;28;20659;-82
2023/03/04 00:48:02;;;;;;;31.92;16.08;;;2.80;99.90;;;;;;5065385;28;20203;-82
2023/03/04 00:50:29;;;;;;;35.30;17.00;;;2.90;99.90;;;;;;5066345;28;20647;-82
2023/03/04 00:52:56;;;;;;;25.88;15.02;;;2.90;99.90;;;;;;5066831;28;20227;-82
2023/03/04 00:55:23;;;;;;;38.78;16.60;;;2.90;99.90;;;;;;5067107;28;20244;-82
2023/03/04 00:57:50;;;;;;;25.48;14.38;;;4.10;99.90;;;;;;5067357;28;20263;-82
2023/03/04 01:00:18;;;;;;;25.50;15.13;;;2.50;99.90;;;;;;5070451;28;20212;-82
2023/03/04 01:02:46;;;;;;;30.08;14.75;;;3.00;99.90;;;;;;5068259;28;20234;-82
2023/03/04 01:05:13;;;;;;;39.35;17.17;;;3.00;99.90;;;;;;5064203;28;20290;-82
2023/03/04 01:07:40;;;;;;;28.58;16.10;;;3.10;1.00;;;;;;5066263;28;20210;-82
2023/03/04 01:10:09;;;;;;;28.67;14.45;;;3.10;1.00;;;;;;5066580;28;20211;-83
2023/03/04 01:12:35;;;;;;;25.35;14.98;;;3.20;1.00;;;;;;5068590;28;20206;-82
2023/03/04 01:15:03;;;;;;;32.33;14.60;;;3.00;32.60;;;;;;5068032;28;20636;-82
2023/03/04 01:17:30;;;;;;;32.50;14.57;;;3.10;1.00;;;;;;5065481;28;20267;-82
2023/03/04 01:19:58;;;;;;;27.25;14.65;;;3.10;1.00;;;;;;5066755;28;20214;-82
2023/03/04 01:22:25;;;;;;;30.90;13.80;;;3.10;1.00;;;;;;5067045;28;20210;-83
2023/03/04 01:24:52;;;;;;;32.40;12.75;;;3.10;1.00;;;;;;5066810;28;20204;-84
2023/03/04 01:27:19;;;;;;;29.98;15.68;;;3.10;1.00;;;;;;5072390;28;20228;-82
2023/03/04 01:29:45;;;;;;;28.80;14.05;;;3.10;1.00;;;;;;5080200;28;20276;-82
2023/03/04 01:32:12;;;;;;;27.02;13.52;;;3.10;1.00;;;;;;5080823;28;20206;-81
2023/03/04 01:34:39;;;;;;;29.70;14.30;;;3.10;99.90;;;;;;5079453;28;20220;-81
2023/03/04 01:37:08;;;;;;;25.52;13.48;;;3.10;1.00;;;;;;5076198;28;20277;-81
2023/03/04 01:39:35;;;;;;;24.60;12.02;;;3.10;1.00;;;;;;5074384;28;20210;-82
2023/03/04 01:42:02;;;;;;;26.30;12.57;;;3.20;1.00;;;;;;5073125;28;20239;-82
2023/03/04 01:44:29;;;;;;;21.17;11.32;;;3.20;1.00;;;;;;5072589;28;20206;-83
2023/03/04 01:46:56;;;;;;;28.38;11.85;;;3.90;1.00;;;;;;5077673;28;20277;-82
2023/03/04 01:49:23;;;;;;;24.52;11.10;;;3.30;1.00;;;;;;5080333;28;20210;-82
2023/03/04 01:51:52;;;;;;;21.23;10.90;;;3.20;1.00;;;;;;5079924;28;20234;-82
2023/03/04 01:54:22;;;;;;;22.10;11.60;;;3.30;1.00;;;;;;5080063;28;20246;-82
2023/03/04 01:56:51;;;;;;;28.52;10.45;;;3.50;1.00;;;;;;5080040;28;20267;-82
2023/03/04 01:59:19;;;;;;;21.50;11.02;;;3.40;1.00;;;;;;5079721;28;20195;-81
2023/03/04 02:01:49;;;;;;;17.40;9.30;;;3.40;1.00;;;;;;5079868;28;20255;-81
2023/03/04 02:04:17;;;;;;;20.63;11.73;;;3.40;1.00;;;;;;5077646;28;20234;-82
2023/03/04 02:06:45;;;;;;;25.52;9.85;;;3.50;1.00;;;;;;5081640;28;20270;-82
2023/03/04 02:09:12;;;;;;;23.98;10.70;;;3.50;1.00;;;;;;5078912;28;20195;-82
2023/03/04 02:11:40;;;;;;;21.20;8.60;;;5.30;1.00;;;;;;5076478;28;20200;-83
2023/03/04 02:14:10;;;;;;;22.52;8.73;;;3.60;1.00;;;;;;5076100;28;20227;-83
2023/03/04 02:16:37;;;;;;;21.23;11.55;;;3.50;1.00;;;;;;5076473;28;20298;-83
2023/03/04 02:19:06;;;;;;;16.95;10.60;;;3.60;1.00;;;;;;5073310;28;20713;-83
2023/03/04 02:21:34;;;;;;;22.85;8.95;;;3.50;1.00;;;;;;5072621;28;20227;-83
2023/03/04 02:24:08;;;;;;;16.50;7.68;;;3.60;1.00;;;;;;5071641;28;20230;-82
2023/03/04 02:26:38;;;;;;;30.75;9.55;;;3.60;1.00;;;;;;5071151;28;20290;-82
2023/03/04 02:29:05;;;;;;;24.20;9.25;;;3.70;1.00;;;;;;5073370;28;20200;-83
2023/03/04 02:31:35;;;;;;;20.92;9.15;;;3.60;1.00;;;;;;5075022;28;20275;-82
2023/03/04 02:34:04;;;;;;;13.75;8.32;;;4.10;1.00;;;;;;5074685;28;20228;-82
2023/03/04 02:36:32;;;;;;;16.95;7.65;;;4.70;64.10;;;;;;5071091;28;20298;-82
2023/03/04 02:39:04;;;;;;;21.88;8.70;;;3.80;58.90;;;;;;5071449;28;20235;-82
2023/03/04 02:41:31;;;;;;;12.68;7.40;;;3.80;1.00;;;;;;5070762;28;20247;-82
2023/03/04 02:43:59;;;;;;;22.17;7.85;;;3.80;99.60;;;;;;5070302;28;20200;-82
2023/03/04 02:46:26;;;;;;;24.67;7.28;;;3.80;1.00;;;;;;5072035;28;20273;-82
2023/03/04 02:48:53;;;;;;;16.27;7.47;;;3.80;8.50;;;;;;5074958;28;20242;-82
2023/03/04 02:51:20;;;;;;;13.18;6.90;;;3.80;1.00;;;;;;5074993;28;20218;-82
2023/03/04 02:53:47;;;;;;;18.13;6.82;;;3.80;82.40;;;;;;5071976;28;20710;-82
2023/03/04 02:56:14;;;;;;;22.52;8.63;;;3.80;99.90;;;;;;5071757;28;20246;-83
2023/03/04 02:58:41;;;;;;;19.27;7.60;;;4.90;1.00;;;;;;5073846;28;20290;-83
2023/03/04 03:01:09;;;;;;;21.77;7.50;;;3.90;26.90;;;;;;5075437;28;20217;-82
2023/03/04 03:03:36;;;;;;;12.13;6.55;;;3.70;13.50;;;;;;5071670;28;20267;-82
2023/03/04 03:06:03;;;;;;;13.45;7.10;;;3.80;99.90;;;;;;5071041;28;20243;-82
2023/03/04 03:08:29;;;;;;;14.98;6.60;;;3.70;99.90;;;;;;5070820;28;20204;-82
2023/03/04 03:10:56;;;;;;;13.27;6.25;;;3.80;99.90;;;;;;5074328;28;20222;-82
2023/03/04 03:13:23;;;;;;;15.93;8.18;;;3.80;99.90;;;;;;5078568;28;20238;-83
2023/03/04 03:15:50;;;;;;;25.00;8.13;;;3.90;99.90;;;;;;5078895;28;20270;-83
2023/03/04 03:18:19;;;;;;;9.75;6.20;;;3.80;99.90;;;;;;5076457;28;20208;-83
2023/03/04 03:20:45;;;;;;;24.60;7.63;;;3.90;99.90;;;;;;5071669;28;20669;-82
2023/03/04 03:23:13;;;;;;;15.75;9.10;;;3.90;99.90;;;;;;5069699;28;20259;-83
2023/03/04 03:25:40;;;;;;;23.02;7.63;;;3.80;99.90;;;;;;5076411;28;20223;-83
2023/03/04 03:28:06;;;;;;;13.02;6.05;;;3.90;99.90;;;;;;5079936;28;20272;-82
2023/03/04 03:30:33;;;;;;;16.77;7.82;;;5.40;99.90;;;;;;5076949;28;20208;-83
2023/03/04 03:33:00;;;;;;;22.17;7.18;;;3.90;99.90;;;;;;5072820;28;20235;-82
2023/03/04 03:35:28;;;;;;;15.98;6.78;;;3.90;99.90;;;;;;5068556;28;20234;-82
2023/03/04 03:37:55;;;;;;;12.15;7.30;;;3.90;99.90;;;;;;5072032;28;20749;-83
2023/03/04 03:40:22;;;;;;;12.48;6.88;;;3.90;1.00;;;;;;5079402;28;20255;-82
2023/03/04 03:42:49;;;;;;;13.82;6.82;;;3.90;1.00;;;;;;5080224;28;20188;-82
2023/03/04 03:45:16;;;;;;;20.23;7.60;;;3.90;1.00;;;;;;5080037;28;20175;-82
2023/03/04 03:47:43;;;;;;;17.58;7.15;;;3.80;1.00;;;;;;5069900;28;20522;-83
2023/03/04 03:50:10;;;;;;;17.25;6.75;;;3.80;1.00;;;;;;5063973;28;20291;-83
2023/03/04 03:52:39;;;;;;;17.70;7.00;;;3.70;1.00;;;;;;5063868;28;20212;-82
2023/03/04 03:55:06;;;;;;;16.80;6.65;;;3.60;1.00;;;;;;5067494;28;20246;-82
2023/03/04 03:57:33;;;;;;;14.23;7.00;;;3.70;1.00;;;;;;5068568;28;20228;-82
2023/03/04 04:00:00;;;;;;;17.13;6.90;;;3.70;1.00;;;;;;5069211;28;20231;-82
2023/03/04 04:02:26;;;;;;;23.05;7.82;;;3.80;1.00;;;;;;5067670;28;20204;-82
2023/03/04 04:04:53;;;;;;;13.55;6.63;;;3.80;1.00;;;;;;5069244;28;20267;-82
2023/03/04 04:07:20;;;;;;;18.50;6.78;;;3.80;1.00;;;;;;5069610;28;20299;-82
2023/03/04 04:09:48;;;;;;;20.80;7.10;;;3.80;1.00;;;;;;5076902;28;20218;-82
2023/03/04 04:12:16;;;;;;;17.40;6.95;;;3.90;1.00;;;;;;5075767;28;20266;-82
2023/03/04 04:14:43;;;;;;;13.85;5.78;;;4.70;1.00;;;;;;5072603;28;20233;-82
2023/03/04 04:17:12;;;;;;;12.55;6.85;;;3.80;1.00;;;;;;5067750;28;20234;-83
2023/03/04 04:19:39;;;;;;;20.00;5.80;;;3.80;1.00;;;;;;5069308;28;20204;-83
2023/03/04 04:22:07;;;;;;;15.13;6.13;;;3.90;1.00;;;;;;5075298;28;20202;-82
2023/03/04 04:24:34;;;;;;;15.60;8.38;;;3.90;1.00;;;;;;5077082;28;20230;-82
2023/03/04 04:27:03;;;;;;;21.75;6.70;;;4.00;1.00;;;;;;5075389;28;20258;-82
2023/03/04 04:29:30;;;;;;;11.60;6.55;;;4.10;1.00;;;;;;5076219;28;20626;-82
2023/03/04 04:31:57;;;;;;;14.43;6.10;;;3.90;1.00;;;;;;5074257;28;20611;-82
2023/03/04 04:34:24;;;;;;;13.23;6.35;;;3.90;1.00;;;;;;5074407;28;20255;-82
2023/03/04 04:36:51;;;;;;;18.80;8.27;;;3.90;1.00;;;;;;5074832;28;20284;-82
2023/03/04 04:39:17;;;;;;;13.30;6.80;;;4.00;1.00;;;;;;5073852;28;20199;-83
2023/03/04 04:41:45;;;;;;;13.25;6.00;;;4.00;1.00;;;;;;5071982;28;20207;-82
2023/03/04 04:44:14;;;;;;;10.70;5.20;;;4.20;1.00;;;;;;5071395;28;20196;-82
2023/03/04 04:46:41;;;;;;;14.15;5.75;;;4.10;1.00;;;;;;5071014;28;20219;-83
2023/03/04 04:49:09;;;;;;;16.27;6.18;;;4.00;1.00;;;;;;5070561;28;20208;-83
2023/03/04 04:51:38;;;;;;;21.42;6.32;;;3.90;1.00;;;;;;5069204;28;20241;-83
2023/03/04 04:54:05;;;;;;;11.25;5.47;;;3.90;1.00;;;;;;5067917;28;20231;-83
2023/03/04 04:56:32;;;;;;;13.32;5.80;;;3.90;1.00;;;;;;5068137;28;20292;-83
2023/03/04 04:59:03;;;;;;;11.02;4.97;;;3.90;1.00;;;;;;5068550;28;20211;-82
2023/03/04 05:01:31;;;;;;;16.27;6.93;;;3.90;1.00;;;;;;5068203;28;20191;-84
2023/03/04 05:03:58;;;;;;;15.95;4.88;;;4.00;1.00;;;;;;5069008;28;20212;-83
2023/03/04 05:06:25;;;;;;;11.73;4.90;;;4.00;1.00;;;;;;5067932;28;20223;-83
2023/03/04 05:08:52;;;;;;;17.13;6.13;;;4.50;1.00;;;;;;5068068;28;20203;-84
2023/03/04 05:11:20;;;;;;;14.43;5.10;;;4.10;1.00;;;;;;5068561;28;20214;-84
2023/03/04 05:13:47;;;;;;;19.70;5.80;;;4.70;1.00;;;;;;5067664;28;20230;-83
2023/03/04 05:16:14;;;;;;;12.82;5.18;;;4.10;1.00;;;;;;5074264;28;20209;-83
2023/03/04 05:18:43;;;;;;;18.92;6.38;;;4.10;1.00;;;;;;5077765;28;20180;-83
2023/03/04 05:21:10;;;;;;;13.80;6.10;;;4.10;1.00;;;;;;5059946;28;20291;-83
2023/03/04 05:23:39;;;;;;;22.60;6.88;;;4.10;1.00;;;;;;5062093;28;20314;-82
2023/03/04 05:26:08;;;;;;;15.57;7.28;;;4.10;1.00;;;;;;5064978;28;20235;-82
2023/03/04 05:28:35;;;;;;;12.40;5.30;;;4.10;1.00;;;;;;5075892;28;20649;-82
2023/03/04 05:31:03;;;;;;;27.65;10.63;;;4.10;1.00;;;;;;5076532;28;20267;-82
2023/03/04 05:33:30;;;;;;;17.52;10.05;;;4.10;1.00;;;;;;5071328;28;20385;-82
2023/03/04 05:35:58;;;;;;;18.95;7.47;;;4.10;1.00;;;;;;5068099;28;20597;-83
2023/03/04 05:38:25;;;;;;;19.00;8.65;;;4.10;1.00;;;;;;5068982;28;20210;-83
2023/03/04 05:40:58;;;;;;;14.45;6.90;;;4.20;1.00;;;;;;5067345;28;20204;-83
2023/03/04 05:43:25;;;;;;;15.10;5.30;;;4.50;1.00;;;;;;5069845;28;20202;-82
2023/03/04 05:45:52;;;;;;;27.10;10.05;;;4.10;1.00;;;;;;5071157;28;20230;-83
2023/03/04 05:48:19;;;;;;;12.57;8.95;;;4.20;1.00;;;;;;5072462;28;20238;-82
2023/03/04 05:50:46;;;;;;;24.40;11.65;;;4.20;1.00;;;;;;5070312;28;20263;-83
2023/03/04 05:53:14;;;;;;;13.00;4.90;;;4.20;1.00;;;;;;5070818;28;20264;-83
2023/03/04 05:55:46;;;;;;;7.65;5.57;;;4.20;1.00;;;;;;5068731;28;20255;-83
2023/03/04 05:58:12;;;;;;;11.10;5.40;;;4.20;1.00;;;;;;5068437;28;20219;-83
2023/03/04 06:00:39;;;;;;;12.02;5.60;;;4.20;1.00;;;;;;5068387;28;20208;-82
2023/03/04 06:03:06;;;;;;;7.15;5.45;;;4.20;1.00;;;;;;5066934;28;20242;-82
2023/03/04 06:05:33;;;;;;;16.15;4.03;;;4.30;1.00;;;;;;5067758;28;20222;-82
2023/03/04 06:08:00;;;;;;;21.15;4.45;;;4.20;1.00;;;;;;5067803;28;20224;-83
2023/03/04 06:10:28;;;;;;;8.77;3.72;;;4.30;14.30;;;;;;5068647;28;20246;-82
2023/03/04 06:12:55;;;;;;;9.35;3.53;;;4.50;12.80;;;;;;5069960;28;20234;-83
2023/03/04 06:15:21;;;;;;;12.77;3.85;;;4.30;36.20;;;;;;5071233;28;20295;-82
2023/03/04 06:17:48;;;;;;;13.70;4.28;;;4.30;73.10;;;;;;5071091;28;20203;-82
2023/03/04 06:20:15;;;;;;;8.45;3.50;;;4.30;93.90;;;;;;5072029;28;20283;-82
2023/03/04 06:22:42;;;;;;;11.68;3.85;;;4.30;99.90;;;;;;5070870;28;20263;-83
2023/03/04 06:25:09;;;;;;;15.00;4.70;;;4.10;99.90;;;;;;5071841;28;20264;-83
2023/03/04 06:27:38;;;;;;;15.02;3.90;;;4.40;99.90;;;;;;5075055;28;20263;-82
2023/03/04 06:30:05;;;;;;;5.25;3.20;;;4.30;99.90;;;;;;5074762;28;20204;-82
2023/03/04 06:32:32;;;;;;;9.80;3.90;;;4.30;99.90;;;;;;5078352;28;20252;-82
2023/03/04 06:34:59;;;;;;;12.52;3.78;;;4.40;99.90;;;;;;5079914;28;20243;-82
2023/03/04 06:37:26;;;;;;;7.10;4.35;;;4.40;99.90;;;;;;5080630;28;20291;-82
2023/03/04 06:39:53;;;;;;;9.43;3.55;;;4.50;99.90;;;;;;5079749;28;20294;-82
2023/03/04 06:42:20;;;;;;;9.25;4.70;;;5.10;99.90;;;;;;5079928;28;20223;-82
2023/03/04 06:44:50;;;;;;;6.35;3.75;;;4.50;99.90;;;;;;5080151;28;20222;-83
2023/03/04 06:47:17;;;;;;;12.82;4.65;;;4.50;99.90;;;;;;5079956;28;20232;-81
2023/03/04 06:49:44;;;;;;;6.80;4.15;;;4.50;99.90;;;;;;5079179;28;20237;-83
2023/03/04 06:52:11;;;;;;;15.80;3.90;;;4.60;99.90;;;;;;5078795;28;20231;-82
2023/03/04 06:54:38;;;;;;;4.53;3.15;;;4.40;99.90;;;;;;5077306;28;20223;-82
2023/03/04 06:57:06;;;;;;;7.47;3.78;;;4.50;99.90;;;;;;5077149;28;20279;-81
2023/03/04 06:59:33;;;;;;;13.90;3.92;;;4.10;99.90;;;;;;5077514;28;20211;-82
2023/03/04 07:02:01;;;;;;;10.43;4.10;;;4.50;99.90;;;;;;5072275;28;20232;-83
2023/03/04 07:04:28;;;;;;;6.88;3.90;;;4.90;99.90;;;;;;5072449;28;20204;-83
2023/03/04 07:06:55;;;;;;;7.35;3.90;;;4.50;99.90;;;;;;5072095;28;20242;-83
2023/03/04 07:09:21;;;;;;;8.82;4.30;;;4.50;99.90;;;;;;5069949;28;20224;-83
2023/03/04 07:11:48;;;;;;;12.05;4.70;;;4.50;99.90;;;;;;5069011;28;20232;-83
2023/03/04 07:14:15;;;;;;;8.88;3.80;;;4.50;99.90;;;;;;5068633;28;20225;-82
2023/03/04 07:16:42;;;;;;;9.55;5.03;;;4.50;99.90;;;;;;5068982;28;20300;-81
2023/03/04 07:19:10;;;;;;;6.70;4.47;;;4.50;99.90;;;;;;5068683;28;20211;-82
2023/03/04 07:21:37;;;;;;;11.25;4.53;;;4.50;99.90;;;;;;5068485;28;20239;-83
2023/03/04 07:24:05;;;;;;;8.68;4.20;;;4.50;99.90;;;;;;5067811;28;20215;-83
2023/03/04 07:26:31;;;;;;;5.00;3.58;;;4.50;99.90;;;;;;5067914;28;20229;-83
2023/03/04 07:28:58;;;;;;;12.52;4.72;;;4.50;99.90;;;;;;5069031;28;20203;-83
2023/03/04 07:31:28;;;;;;;8.63;3.88;;;4.60;99.90;;;;;;5071372;28;20299;-82
2023/03/04 07:33:57;;;;;;;5.10;3.13;;;4.70;99.90;;;;;;5072446;28;20212;-83
2023/03/04 07:36:26;;;;;;;6.90;3.95;;;4.70;1.00;;;;;;5069900;28;20262;-83
2023/03/04 07:38:54;;;;;;;8.73;3.50;;;4.70;1.00;;;;;;5075782;28;20203;-83
2023/03/04 07:41:26;;;;;;;6.93;3.80;;;4.70;1.00;;;;;;5077501;28;20214;-83
2023/03/04 07:43:52;;;;;;;5.65;4.25;;;4.80;1.00;;;;;;5078263;28;20187;-83
2023/03/04 07:46:20;;;;;;;8.00;3.97;;;4.70;1.00;;;;;;5075939;28;20255;-83
2023/03/04 07:48:46;;;;;;;6.60;3.60;;;4.70;1.00;;;;;;5074219;28;20199;-83
2023/03/04 07:51:15;;;;;;;9.43;4.47;;;4.70;1.00;;;;;;5070614;28;20315;-83
2023/03/04 07:53:46;;;;;;;7.55;3.50;;;4.70;1.00;;;;;;5068201;28;20200;-83
2023/03/04 07:56:14;;;;;;;6.53;3.40;;;5.10;1.00;;;;;;5065720;28;20224;-82
2023/03/04 07:58:42;;;;;;;6.60;4.30;;;4.80;1.00;;;;;;5066967;28;20208;-83
2023/03/04 08:01:10;;;;;;;8.15;4.20;;;4.80;1.00;;;;;;5066542;28;20291;-82
2023/03/04 08:03:37;;;;;;;6.32;3.63;;;4.80;1.00;;;;;;5067604;28;20208;-82
2023/03/04 08:06:05;;;;;;;5.70;3.38;;;5.10;1.00;;;;;;5072719;28;20239;-82
2023/03/04 08:08:32;;;;;;;9.48;4.03;;;4.90;1.00;;;;;;5079864;28;20239;-83
2023/03/04 08:11:01;;;;;;;8.48;3.75;;;5.10;1.00;;;;;;5079670;28;20218;-83
2023/03/04 08:13:27;;;;;;;5.95;3.53;;;4.90;1.00;;;;;;5070673;28;20235;-84
2023/03/04 08:15:56;;;;;;;13.07;4.50;;;6.10;1.00;;;;;;5061043;28;20605;-83
2023/03/04 08:18:23;;;;;;;5.78;3.67;;;5.00;1.00;;;;;;5061397;28;20269;-83
2023/03/04 08:20:51;;;;;;;7.40;4.00;;;4.70;1.00;;;;;;5065716;28;20267;-83
2023/03/04 08:23:18;;;;;;;4.35;3.78;;;5.00;1.00;;;;;;5066034;28;20211;-83
2023/03/04 08:25:45;;;;;;;6.85;3.30;;;5.10;1.00;;;;;;5070256;28;20221;-83
2023/03/04 08:28:13;;;;;;;3.42;2.75;;;5.10;1.00;;;;;;5079251;28;20248;-82
2023/03/04 08:30:41;;;;;;;4.22;2.65;;;5.00;1.00;;;;;;5076436;28;20180;-82
2023/03/04 08:33:08;;;;;;;4.50;3.10;;;5.00;1.00;;;;;;5074201;28;20271;-82
2023/03/04 08:35:38;;;;;;;7.22;3.85;;;5.10;1.00;;;;;;5075513;28;20208;-82
2023/03/04 08:38:05;;;;;;;4.57;3.10;;;5.20;1.00;;;;;;5075462;28;20207;-83
2023/03/04 08:40:32;;;;;;;12.40;6.47;;;5.40;1.00;;;;;;5076947;28;20192;-83
2023/03/04 08:42:59;;;;;;;7.68;3.63;;;5.20;99.90;;;;;;5077262;28;20211;-82
2023/03/04 08:45:27;;;;;;;4.82;3.75;;;5.30;99.90;;;;;;5072035;28;20605;-83
2023/03/04 08:47:54;;;;;;;3.70;2.75;;;5.30;99.90;;;;;;5073846;28;20207;-82
2023/03/04 08:50:21;;;;;;;7.45;4.10;;;5.00;99.90;;;;;;5075301;28;20212;-82
2023/03/04 08:52:48;;;;;;;11.10;2.75;;;5.40;99.90;;;;;;5072170;28;20208;-83
2023/03/04 08:55:15;;;;;;;6.97;3.10;;;5.70;77.50;;;;;;5069261;28;20227;-83
2023/03/04 08:57:42;;;;;;;4.07;3.10;;;5.40;1.00;;;;;;5069783;28;20272;-82
2023/03/04 09:00:11;;;;;;;5.15;3.10;;;5.50;99.90;;;;;;5068810;28;20205;-82
2023/03/04 09:02:39;;;;;;;6.95;3.20;;;5.60;99.90;;;;;;5068190;28;20648;-83
2023/03/04 09:05:10;;;;;;;6.15;3.42;;;5.70;99.90;;;;;;5068424;28;20231;-82
2023/03/04 09:07:37;;;;;;;7.57;2.90;;;5.80;81.50;;;;;;5071574;28;20195;-82
2023/03/04 09:10:04;;;;;;;3.95;2.30;;;5.90;99.90;;;;;;5072888;28;20204;-82
2023/03/04 09:12:31;;;;;;;8.32;2.83;;;5.90;57.60;;;;;;5071319;28;20295;-83
2023/03/04 09:14:58;;;;;;;6.93;2.97;;;6.00;99.90;;;;;;5068094;28;20208;-83
2023/03/04 09:17:25;;;;;;;4.35;3.10;;;6.00;99.90;;;;;;5061981;28;20228;-83
2023/03/04 09:19:53;;;;;;;10.25;3.00;;;6.20;99.90;;;;;;5066603;28;20333;-83
2023/03/04 09:22:19;;;;;;;6.68;2.90;;;6.20;99.70;;;;;;5066563;28;20664;-83
2023/03/04 09:24:46;;;;;;;4.05;2.55;;;6.70;1.00;;;;;;5074179;28;20191;-82
2023/03/04 09:27:13;;;;;;;4.30;2.65;;;6.00;99.90;;;;;;5076323;28;20228;-82
2023/03/04 09:29:42;;;;;;;6.50;2.50;;;6.10;1.00;;;;;;5075629;28;20211;-83
2023/03/04 09:32:09;;;;;;;8.10;2.53;;;6.20;99.90;;;;;;5072256;28;20310;-83
2023/03/04 09:34:35;;;;;;;7.88;3.30;;;5.90;99.90;;;;;;5072711;28;20790;-82
2023/03/04 09:37:04;;;;;;;9.70;2.67;;;6.20;99.90;;;;;;5071938;28;20230;-83
2023/03/04 09:39:31;;;;;;;7.03;3.10;;;;;;;;;;5072552;28;20298;-84
2023/03/04 09:41:59;;;;;;;8.73;2.20;;;6.30;1.00;;;;;;5068546;28;20222;-82
2023/03/04 09:44:29;;;;;;;6.22;2.85;;;6.50;99.90;;;;;;5068688;28;20224;-84
2023/03/04 09:46:59;;;;;;;5.72;3.10;;;7.20;1.00;;;;;;5069925;28;20240;-83
2023/03/04 09:49:27;;;;;;;14.90;3.25;;;6.40;99.90;;;;;;5072158;28;20254;-84
2023/03/04 09:52:02;;;;;;;8.65;3.20;;;6.50;99.90;;;;;;5070914;28;20270;-83
2023/03/04 09:54:51;;;;;;;8.40;3.30;;;6.60;99.90;;;;;;5071236;28;20685;-83
2023/03/04 09:57:28;;;;;;;5.65;2.58;;;6.20;99.90;;;;;;5070466;28;20228;-83
2023/03/04 10:00:04;;;;;;;6.20;3.35;;;6.40;1.00;;;;;;5070041;28;20189;-83
2023/03/04 10:02:41;;;;;;;6.53;2.58;;;6.30;99.90;;;;;;5070725;28;20245;-83
2023/03/04 10:05:13;;;;;;;5.25;3.00;;;6.10;1.00;;;;;;5069364;28;20255;-82
2023/03/04 10:07:43;;;;;;;7.10;3.05;;;6.40;1.00;;;;;;5071297;28;20598;-83
2023/03/04 10:10:16;;;;;;;5.78;2.67;;;6.50;1.00;;;;;;5070630;28;20212;-83
2023/03/04 10:12:46;;;;;;;2.70;2.05;;;6.60;1.00;;;;;;5071475;28;20189;-83
2023/03/04 10:15:22;;;;;;;6.60;2.33;;;6.20;1.00;;;;;;5070505;28;20193;-84
2023/03/04 10:17:54;;;;;;;5.38;2.75;;;6.40;99.90;;;;;;5070789;28;20260;-83
2023/03/04 10:20:23;;;;;;;4.13;2.15;;;6.40;1.00;;;;;;5073848;28;20256;-84
2023/03/04 10:22:52;;;;;;;5.95;2.30;;;6.20;1.00;;;;;;5077004;28;20272;-83
2023/03/04 10:25:23;;;;;;;11.40;2.70;;;6.20;1.00;;;;;;5075515;28;20578;-83
2023/03/04 10:27:52;;;;;;;4.68;2.83;;;6.30;1.00;;;;;;5072322;28;20717;-84
2023/03/04 10:30:26;;;;;;;23.77;3.15;;;6.50;99.90;;;;;;5070610;28;20232;-84
2023/03/04 10:32:54;;;;;;;14.23;3.65;;;6.60;1.00;;;;;;5070745;28;20247;-84
2023/03/04 10:35:26;;;;;;;6.72;3.20;;;6.60;1.00;;;;;;5070052;28;20212;-82
2023/03/04 10:37:53;;;;;;;5.47;2.25;;;6.70;99.90;;;;;;5070823;28;20929;-83
2023/03/04 10:40:25;;;;;;;8.80;3.22;;;6.60;99.90;;;;;;5070445;28;20215;-84
2023/03/04 10:42:54;;;;;;;8.07;2.58;;;6.80;99.90;;;;;;5072992;28;20231;-84
2023/03/04 10:45:23;;;;;;;7.70;2.50;;;6.70;99.90;;;;;;5072704;28;20710;-83
2023/03/04 10:47:54;;;;;;;6.07;2.88;;;6.50;99.90;;;;;;5075992;28;20211;-83
2023/03/04 10:50:23;;;;;;;11.23;2.42;;;6.50;99.90;;;;;;5077902;28;20238;-83
2023/03/04 10:52:52;;;;;;;19.67;3.25;;;6.60;90.60;;;;;;5075389;28;20210;-84
2023/03/04 10:55:23;;;;;;;7.22;2.30;;;6.00;99.90;;;;;;5074465;28;20215;-83
2023/03/04 10:57:54;;;;;;;5.65;2.30;;;6.80;1.00;;;;;;5072220;28;20209;-84
2023/03/04 11:00:27;;;;;;;11.05;3.28;;;7.00;99.90;;;;;;5070938;28;20617;-82
2023/03/04 11:03:25;;;;;;;6.72;2.90;;;7.00;1.00;;;;;;5070787;28;20193;-83
2023/03/04 11:06:03;;;;;;;10.07;3.00;;;7.10;1.00;;;;;;5069114;28;20779;-83
2023/03/04 11:08:30;;;;;;;6.50;2.67;;;6.90;1.00;;;;;;5068663;28;20238;-83
2023/03/04 11:10:57;;;;;;;7.18;2.92;;;6.90;99.90;;;;;;5070159;28;20267;-83
2023/03/04 11:13:26;;;;;;;11.35;2.80;;;6.60;1.00;;;;;;5071236;28;20214;-82
2023/03/04 11:15:55;;;;;;;6.28;2.65;;;7.30;1.00;;;;;;5069449;28;20398;-84
2023/03/04 11:18:29;;;;;;;12.48;3.67;;;6.70;1.00;;;;;;5071010;28;20644;-83
2023/03/04 11:20:57;;;;;;;8.40;2.65;;;6.80;1.00;;;;;;5074002;28;20248;-82
2023/03/04 11:23:34;;;;;;;5.93;3.00;;;6.70;40.80;;;;;;5070730;28;20462;-83
2023/03/04 11:26:03;;;;;;;13.02;4.10;;;6.70;1.00;;;;;;5069234;28;20411;-82
2023/03/04 11:28:42;;;;;;;4.03;3.05;;;6.90;1.00;;;;;;5076571;28;20215;-84
2023/03/04 11:31:14;;;;;;;11.10;2.58;;;7.10;1.00;;;;;;5074740;28;20193;-83
2023/03/04 11:33:48;;;;;;;13.65;3.60;;;7.10;1.00;;;;;;5075843;28;20248;-83
2023/03/04 11:36:29;;;;;;;13.90;3.20;;;7.00;1.00;;;;;;5076330;28;20227;-84
2023/03/04 11:38:57;;;;;;;6.75;2.83;;;7.00;1.00;;;;;;5077485;28;20220;-83
2023/03/04 11:41:30;;;;;;;9.35;2.67;;;6.90;1.00;;;;;;5076172;28;20220;-83
2023/03/04 11:43:59;;;;;;;12.40;3.40;;;6.80;1.00;;;;;;5077494;28;20183;-82
2023/03/04 11:47:02;;;;;;;13.10;3.83;;;7.00;1.00;;;;;;5072006;28;20261;-82
2023/03/04 11:49:55;;;;;;;10.85;3.50;;;7.10;1.00;;;;;;5072648;28;20235;-83
2023/03/04 11:52:31;;;;;;;9.30;4.05;;;6.80;1.00;;;;;;5072601;28;20251;-83
2023/03/04 11:55:18;;;;;;;10.23;3.03;;;6.90;1.00;;;;;;5073621;28;20192;-83
2023/03/04 11:57:58;;;;;;;18.60;4.18;;;7.40;90.80;;;;;;5072964;28;20215;-84
2023/03/04 12:00:37;;;;;;;12.32;3.50;;;7.10;1.00;;;;;;5073490;28;20217;-83
2023/03/04 12:03:43;;;;;;;11.30;3.80;;;8.00;1.00;;;;;;5072790;28;20189;-83
2023/03/04 12:06:18;;;;;;;10.82;4.50;;;7.00;99.90;;;;;;5071695;28;20227;-83
2023/03/04 12:09:21;;;;;;;13.85;3.53;;;6.70;1.00;;;;;;5069337;28;20216;-83
2023/03/04 12:11:55;;;;;;;14.38;3.80;;;6.80;1.00;;;;;;5068867;28;20291;-84
2023/03/04 12:14:29;;;;;;;14.32;3.67;;;6.40;99.90;;;;;;5070594;28;20228;-84
2023/03/04 12:17:13;;;;;;;15.70;4.30;;;6.60;99.90;;;;;;5070440;28;20223;-84
2023/03/04 12:19:51;;;;;;;14.13;5.13;;;6.40;99.90;;;;;;5069666;28;20630;-83
2023/03/04 12:22:31;;;;;;;9.80;3.13;;;6.90;99.90;;;;;;5069614;28;20227;-83
2023/03/04 12:25:18;;;;;;;15.65;4.07;;;6.60;1.00;;;;;;5069318;28;20285;-83
2023/03/04 12:27:51;;;;;;;11.00;3.35;;;6.70;1.00;;;;;;5070090;28;20218;-83
2023/03/04 12:30:33;;;;;;;14.07;4.03;;;6.60;1.00;;;;;;5068997;28;20188;-84
2023/03/04 12:33:09;;;;;;;7.85;3.70;;;6.50;1.00;;;;;;5069134;28;20223;-83
2023/03/04 12:35:41;;;;;;;10.63;3.00;;;6.50;1.00;;;;;;5068355;28;20220;-84
2023/03/04 12:38:30;;;;;;;14.20;3.90;;;6.40;1.00;;;;;;5075322;28;20282;-85
2023/03/04 12:41:06;;;;;;;8.68;2.97;;;6.60;1.00;;;;;;5077809;28;20239;-83
2023/03/04 12:43:41;;;;;;;15.05;3.63;;;6.40;84.80;;;;;;5078453;28;20247;-82
2023/03/04 12:46:24;;;;;;;9.77;3.08;;;6.90;1.00;;;;;;5078455;28;20223;-82
2023/03/04 12:49:15;;;;;;;15.25;2.75;;;6.70;1.00;;;;;;5076496;28;20219;-82
2023/03/04 12:51:46;;;;;;;8.98;2.65;;;6.50;3.20;;;;;;5076470;28;20199;-82
2023/03/04 12:54:24;;;;;;;7.85;3.35;;;6.60;1.00;;;;;;5075787;28;20192;-82
2023/03/04 12:56:55;;;;;;;7.80;2.72;;;6.50;1.00;;;;;;5074602;28;20227;-83
2023/03/04 12:59:25;;;;;;;7.40;2.55;;;6.30;26.20;;;;;;5072249;28;20219;-83
2023/03/04 13:02:01;;;;;;;11.23;3.55;;;6.60;31.70;;;;;;5068018;28;20218;-82
2023/03/04 13:04:40;;;;;;;4.22;2.20;;;6.60;1.00;;;;;;5068306;28;20259;-83
2023/03/04 13:07:14;;;;;;;12.15;3.45;;;6.50;1.00;;;;;;5066921;28;20253;-83